Time;durP1;ratioP1;P1;durP2;ratioP2;P2;SDS_P1;SDS_P2;PMS_P1;PMS_P2;Temp;Humidity;BMP_temperature;BMP_pressure;BME280_temperature;BME280_humidity;BME280_pressure;Samples;Min_cycle;Max_cycle;Signal;HPM_P1;HPM_P2
2021/04/02 00:04:43;;;;;;;30.07;17.90;;;14.20;71.40;;;;;;10535393;28;20219;-76
2021/04/02 00:09:46;;;;;;;27.80;17.50;;;14.20;71.70;;;;;;10535568;28;20216;-77
2021/04/02 00:14:47;;;;;;;23.10;17.43;;;14.20;72.00;;;;;;10518162;28;20620;-75
2021/04/02 00:19:49;;;;;;;26.20;18.33;;;14.10;72.00;;;;;;10543917;28;20243;-77
2021/04/02 00:24:51;;;;;;;28.77;20.37;;;14.10;72.10;;;;;;10543929;28;20215;-76
2021/04/02 00:29:53;;;;;;;28.80;20.43;;;14.10;72.40;;;;;;10543409;28;20219;-77
2021/04/02 00:34:54;;;;;;;29.10;20.20;;;14.00;72.70;;;;;;10525727;28;20200;-76
2021/04/02 00:39:57;;;;;;;29.47;20.40;;;13.90;72.70;;;;;;10543120;28;20329;-76
2021/04/02 00:44:59;;;;;;;29.73;20.70;;;13.90;73.10;;;;;;10543505;28;20203;-77
2021/04/02 00:50:00;;;;;;;32.03;20.80;;;13.80;73.10;;;;;;10542250;28;20299;-76
2021/04/02 00:55:06;;;;;;;31.67;23.80;;;13.80;73.40;;;;;;10524954;28;20188;-76
2021/04/02 01:00:10;;;;;;;32.33;23.30;;;13.70;73.90;;;;;;10539616;28;20210;-76
2021/04/02 01:05:16;;;;;;;40.20;24.20;;;13.60;74.10;;;;;;10521197;28;20253;-76
2021/04/02 01:10:21;;;;;;;33.80;24.27;;;13.50;74.30;;;;;;10542193;28;20212;-77
2021/04/02 01:15:25;;;;;;;32.20;24.37;;;13.50;74.60;;;;;;10523329;28;20195;-77
2021/04/02 01:20:33;;;;;;;33.63;24.40;;;13.50;75.30;;;;;;10523634;28;20291;-77
2021/04/02 01:25:47;;;;;;;28.87;20.70;;;13.50;75.10;;;;;;10523088;28;20572;-77
2021/04/02 01:30:51;;;;;;;24.60;20.20;;;13.60;74.70;;;;;;10541242;28;20239;-76
2021/04/02 01:35:55;;;;;;;27.73;19.63;;;13.60;74.50;;;;;;10540596;28;20188;-77
2021/04/02 01:41:01;;;;;;;30.10;22.67;;;13.70;73.60;;;;;;10522894;28;20242;-76
2021/04/02 01:46:07;;;;;;;28.03;20.60;;;13.70;73.30;;;;;;10521798;28;20192;-77
2021/04/02 01:51:11;;;;;;;23.70;18.20;;;13.60;73.20;;;;;;10540359;28;20234;-77
2021/04/02 01:56:14;;;;;;;22.37;18.20;;;13.60;72.90;;;;;;10539710;28;20540;-77
2021/04/02 02:01:18;;;;;;;21.93;14.87;;;13.50;73.60;;;;;;10521205;28;20269;-76
2021/04/02 02:06:22;;;;;;;20.97;16.70;;;13.50;73.10;;;;;;10522384;28;20244;-76
2021/04/02 02:11:34;;;;;;;20.90;16.50;;;13.50;73.20;;;;;;10505290;28;20349;-77
2021/04/02 02:16:41;;;;;;;17.83;14.43;;;13.40;73.20;;;;;;10504888;28;20249;-77
2021/04/02 02:21:44;;;;;;;15.40;12.50;;;13.30;72.80;;;;;;10538853;28;20709;-77
2021/04/02 02:26:48;;;;;;;19.70;12.80;;;13.30;72.60;;;;;;10504469;28;20192;-77
2021/04/02 02:31:52;;;;;;;18.03;13.30;;;13.20;73.00;;;;;;10521063;28;20224;-76
2021/04/02 02:37:02;;;;;;;18.47;15.03;;;13.20;72.80;;;;;;10520183;28;20248;-77
2021/04/02 02:42:11;;;;;;;18.80;14.07;;;13.30;72.60;;;;;;10520534;28;20245;-77
2021/04/02 02:47:14;;;;;;;15.17;12.80;;;13.10;72.90;;;;;;10538722;28;20215;-76
2021/04/02 02:52:27;;;;;;;15.40;12.17;;;13.00;73.40;;;;;;10520307;28;20590;-76
2021/04/02 02:57:32;;;;;;;16.57;13.47;;;12.90;73.60;;;;;;10519575;28;20664;-77
2021/04/02 03:02:36;;;;;;;15.50;12.87;;;12.70;74.20;;;;;;10519610;28;20214;-76
2021/04/02 03:07:41;;;;;;;12.00;10.17;;;12.60;74.10;;;;;;10519162;28;20192;-76
2021/04/02 03:12:45;;;;;;;13.00;11.37;;;12.50;73.50;;;;;;10519818;28;20221;-77
2021/04/02 03:17:52;;;;;;;11.47;10.27;;;12.50;74.10;;;;;;10518983;28;20192;-77
2021/04/02 03:22:55;;;;;;;11.90;10.23;;;12.50;74.10;;;;;;10519377;28;20207;-77
2021/04/02 03:27:58;;;;;;;14.10;9.40;;;12.40;74.10;;;;;;10518999;28;20187;-76
2021/04/02 03:33:13;;;;;;;13.90;11.23;;;12.40;74.00;;;;;;10518721;28;20219;-77
2021/04/02 03:38:21;;;;;;;13.83;9.50;;;12.30;74.40;;;;;;10518720;28;20234;-77
2021/04/02 03:43:26;;;;;;;13.17;9.60;;;12.30;73.30;;;;;;10536121;28;20184;-77
2021/04/02 03:48:34;;;;;;;11.47;9.47;;;12.30;73.60;;;;;;10517895;28;20192;-77
2021/04/02 03:53:41;;;;;;;10.30;8.60;;;12.40;72.80;;;;;;10517837;28;20223;-77
2021/04/02 03:58:46;;;;;;;9.70;7.97;;;12.40;71.10;;;;;;10501913;28;20223;-76
2021/04/02 04:03:52;;;;;;;8.47;7.63;;;12.40;71.20;;;;;;10535930;28;20184;-76
2021/04/02 04:08:58;;;;;;;9.90;6.23;;;12.40;69.70;;;;;;10517598;28;20200;-77
2021/04/02 04:14:02;;;;;;;7.03;5.30;;;12.40;68.00;;;;;;10501636;28;20216;-76
2021/04/02 04:19:08;;;;;;;5.40;5.00;;;12.40;66.50;;;;;;10535779;28;20584;-76
2021/04/02 04:24:19;;;;;;;7.00;6.20;;;12.30;66.30;;;;;;10517822;28;20192;-77
2021/04/02 04:29:24;;;;;;;6.50;5.77;;;12.20;66.60;;;;;;10535018;28;20679;-76
2021/04/02 04:34:27;;;;;;;5.50;5.00;;;12.20;65.80;;;;;;10535281;28;20224;-76
2021/04/02 04:39:30;;;;;;;8.33;4.53;;;12.20;65.90;;;;;;10534976;28;20219;-77
2021/04/02 04:44:34;;;;;;;4.70;4.20;;;12.10;63.00;;;;;;10517353;28;20264;-76
2021/04/02 04:49:36;;;;;;;4.77;4.07;;;12.00;62.60;;;;;;10534937;28;20698;-77
2021/04/02 04:54:39;;;;;;;5.80;3.63;;;12.00;62.70;;;;;;10535404;28;20211;-77
2021/04/02 04:59:42;;;;;;;4.23;3.93;;;11.90;62.00;;;;;;10516718;28;20722;-77
2021/04/02 05:04:45;;;;;;;3.53;3.10;;;11.80;61.80;;;;;;10540289;28;20271;-77
2021/04/02 05:09:49;;;;;;;6.90;3.97;;;11.70;62.00;;;;;;10524579;28;20330;-76
2021/04/02 05:14:52;;;;;;;4.67;3.10;;;11.60;60.40;;;;;;10541932;28;20239;-77
2021/04/02 05:19:56;;;;;;;3.83;3.40;;;11.60;61.50;;;;;;10523771;28;20307;-77
2021/04/02 05:24:57;;;;;;;4.60;3.57;;;11.50;61.10;;;;;;10541880;28;20188;-76
2021/04/02 05:29:59;;;;;;;3.23;3.03;;;11.50;60.40;;;;;;10541521;28;20219;-76
2021/04/02 05:35:02;;;;;;;3.87;3.30;;;11.50;60.50;;;;;;10523500;28;20222;-77
2021/04/02 05:40:04;;;;;;;4.07;3.33;;;11.40;60.30;;;;;;10522878;28;20577;-76
2021/04/02 05:45:07;;;;;;;5.33;3.53;;;11.40;59.90;;;;;;10522724;28;20192;-77
2021/04/02 05:50:11;;;;;;;3.90;3.47;;;11.40;60.70;;;;;;10540695;28;20290;-77
2021/04/02 05:55:14;;;;;;;4.17;3.33;;;11.40;60.70;;;;;;10540563;28;20233;-76
2021/04/02 06:00:17;;;;;;;5.07;3.80;;;11.40;61.50;;;;;;10541504;28;20207;-77
2021/04/02 06:05:20;;;;;;;3.60;3.30;;;11.30;61.50;;;;;;10539930;28;20188;-76
2021/04/02 06:10:21;;;;;;;4.40;3.93;;;11.30;61.20;;;;;;10540430;28;20747;-76
2021/04/02 06:15:23;;;;;;;4.07;3.67;;;11.30;61.30;;;;;;10521074;28;20231;-76
2021/04/02 06:20:27;;;;;;;4.67;3.87;;;11.30;60.60;;;;;;10540026;28;20208;-76
2021/04/02 06:25:29;;;;;;;4.07;3.30;;;11.30;61.70;;;;;;10538884;28;20302;-76
2021/04/02 06:30:31;;;;;;;5.60;4.97;;;11.40;61.80;;;;;;10538820;28;20212;-76
2021/04/02 06:35:36;;;;;;;3.97;3.57;;;11.40;61.30;;;;;;10539032;28;20230;-76
2021/04/02 06:40:38;;;;;;;8.63;4.70;;;11.40;61.70;;;;;;10503665;28;20219;-77
2021/04/02 06:45:40;;;;;;;6.07;4.70;;;11.30;62.20;;;;;;10520130;28;20195;-76
2021/04/02 06:50:43;;;;;;;7.30;5.07;;;11.30;63.00;;;;;;10538745;28;20626;-77
2021/04/02 06:55:46;;;;;;;6.43;5.20;;;11.30;63.10;;;;;;10538132;28;20188;-77
2021/04/02 07:00:51;;;;;;;6.03;5.53;;;11.40;62.90;;;;;;10537297;28;20216;-76
2021/04/02 07:05:53;;;;;;;5.80;5.20;;;11.40;62.20;;;;;;10537776;28;20200;-76
2021/04/02 07:10:57;;;;;;;5.60;5.10;;;11.40;62.80;;;;;;10537962;28;20339;-76
2021/04/02 07:15:59;;;;;;;5.13;4.73;;;11.50;63.00;;;;;;10536784;28;20194;-77
2021/04/02 07:21:02;;;;;;;6.17;5.57;;;11.50;62.50;;;;;;10537687;28;20216;-77
2021/04/02 07:26:04;;;;;;;6.80;6.17;;;11.50;62.80;;;;;;10536434;28;20224;-76
2021/04/02 07:31:07;;;;;;;5.53;5.10;;;11.50;64.00;;;;;;10519169;28;20631;-77
2021/04/02 07:36:12;;;;;;;6.83;6.23;;;11.60;62.40;;;;;;10537254;28;20217;-77
2021/04/02 07:41:17;;;;;;;10.93;7.10;;;11.70;63.20;;;;;;10536851;28;20219;-77
2021/04/02 07:46:21;;;;;;;7.27;6.57;;;11.70;63.00;;;;;;10536367;28;20215;-77
2021/04/02 07:51:24;;;;;;;9.90;7.07;;;11.70;63.40;;;;;;10518681;28;20216;-76
2021/04/02 07:56:34;;;;;;;9.23;7.03;;;11.80;63.90;;;;;;10518332;28;20188;-77
2021/04/02 08:01:35;;;;;;;8.00;7.03;;;12.00;62.90;;;;;;10518299;28;20596;-76
2021/04/02 08:06:39;;;;;;;9.13;7.87;;;12.30;62.90;;;;;;10517746;28;20256;-77
2021/04/02 08:11:45;;;;;;;8.93;7.53;;;12.50;61.70;;;;;;10535716;28;20232;-77
2021/04/02 08:16:48;;;;;;;8.73;7.93;;;12.80;61.70;;;;;;10535600;28;20682;-77
2021/04/02 08:21:53;;;;;;;9.03;8.17;;;13.20;61.10;;;;;;10536238;28;20235;-76
2021/04/02 08:26:55;;;;;;;8.93;8.07;;;13.40;60.50;;;;;;10517356;28;20188;-76
2021/04/02 08:31:59;;;;;;;9.33;8.53;;;13.60;60.20;;;;;;10535338;28;20597;-77
2021/04/02 08:37:03;;;;;;;8.20;7.50;;;13.70;60.20;;;;;;10537757;28;20220;-77
2021/04/02 08:42:08;;;;;;;9.37;8.47;;;13.90;59.70;;;;;;10551439;22;20235;-76
2021/04/02 08:47:12;;;;;;;9.03;8.23;;;14.00;59.30;;;;;;10522834;28;20192;-77
2021/04/02 08:52:17;;;;;;;11.33;8.90;;;14.00;59.50;;;;;;10540153;28;20208;-78
2021/04/02 08:57:22;;;;;;;8.93;8.13;;;14.20;59.10;;;;;;10539677;28;20185;-78
2021/04/02 09:02:27;;;;;;;9.20;8.40;;;14.20;58.30;;;;;;10541230;28;20219;-77
2021/04/02 09:07:30;;;;;;;9.57;8.73;;;14.20;59.00;;;;;;10539267;28;20230;-77
2021/04/02 09:12:35;;;;;;;10.33;9.33;;;14.10;58.80;;;;;;10540519;28;20220;-76
2021/04/02 09:17:36;;;;;;;10.33;9.33;;;14.10;59.00;;;;;;10542714;28;20212;-77
2021/04/02 09:22:40;;;;;;;9.83;8.93;;;14.10;59.40;;;;;;10540055;28;20223;-77
2021/04/02 09:27:42;;;;;;;10.20;9.20;;;14.50;59.50;;;;;;10538772;28;20715;-77
2021/04/02 09:32:44;;;;;;;10.70;9.53;;;14.80;58.00;;;;;;10538154;28;20212;-78
2021/04/02 09:37:46;;;;;;;9.60;8.80;;;14.90;58.90;;;;;;10538292;28;20184;-77
2021/04/02 09:42:49;;;;;;;9.20;8.30;;;15.20;58.30;;;;;;10537871;28;20232;-77
2021/04/02 09:47:51;;;;;;;8.60;7.80;;;15.50;57.20;;;;;;10538269;28;20191;-77
2021/04/02 09:52:55;;;;;;;9.63;8.67;;;15.60;56.60;;;;;;10542937;28;20228;-77
2021/04/02 09:57:57;;;;;;;8.73;7.97;;;15.70;56.60;;;;;;10547620;28;20195;-77
2021/04/02 10:02:58;;;;;;;9.73;8.70;;;15.60;56.80;;;;;;10538506;28;20306;-77
2021/04/02 10:08:01;;;;;;;8.97;8.27;;;15.90;55.80;;;;;;10538640;28;20279;-78
2021/04/02 10:13:03;;;;;;;10.23;8.73;;;16.10;56.10;;;;;;10538083;28;20590;-77
2021/04/02 10:18:05;;;;;;;8.10;7.40;;;16.00;55.50;;;;;;10537683;28;20196;-77
2021/04/02 10:23:07;;;;;;;7.63;6.93;;;15.80;55.80;;;;;;10537101;28;20218;-77
2021/04/02 10:28:09;;;;;;;10.20;9.30;;;15.80;55.60;;;;;;10537325;28;20264;-77
2021/04/02 10:33:10;;;;;;;8.07;7.47;;;15.70;55.20;;;;;;10536984;28;20211;-76
2021/04/02 10:38:13;;;;;;;8.53;7.77;;;15.80;55.80;;;;;;10537153;28;20192;-77
2021/04/02 10:43:15;;;;;;;10.33;9.33;;;15.80;55.30;;;;;;10535359;28;20722;-76
2021/04/02 10:48:17;;;;;;;9.30;8.37;;;15.50;55.20;;;;;;10534855;28;20192;-77
2021/04/02 10:53:19;;;;;;;9.87;8.73;;;15.50;55.00;;;;;;10535137;28;20752;-77
2021/04/02 10:58:21;;;;;;;9.23;8.43;;;15.50;55.10;;;;;;10534486;28;20198;-76
2021/04/02 11:03:23;;;;;;;9.77;8.77;;;15.50;54.50;;;;;;10533643;28;20584;-77
2021/04/02 11:08:25;;;;;;;10.00;9.00;;;15.50;54.20;;;;;;10536124;28;20203;-77
2021/04/02 11:13:27;;;;;;;8.93;8.20;;;15.30;54.20;;;;;;10536459;28;20200;-76
2021/04/02 11:18:29;;;;;;;9.90;9.07;;;15.20;53.80;;;;;;10542147;28;20203;-78
2021/04/02 11:23:31;;;;;;;8.53;7.53;;;15.00;53.80;;;;;;10535262;28;20223;-76
2021/04/02 11:28:33;;;;;;;7.50;6.90;;;14.90;55.20;;;;;;10535305;28;20271;-77
2021/04/02 11:33:34;;;;;;;8.80;7.90;;;14.90;54.00;;;;;;10537748;28;20204;-78
2021/04/02 11:38:37;;;;;;;9.87;9.03;;;14.80;53.80;;;;;;10535052;28;20650;-77
2021/04/02 11:43:39;;;;;;;8.17;7.00;;;14.60;54.20;;;;;;10533084;28;20227;-78
2021/04/02 11:48:40;;;;;;;7.87;7.20;;;14.60;54.70;;;;;;10533114;28;20191;-77
2021/04/02 11:53:43;;;;;;;7.53;6.90;;;14.60;54.40;;;;;;10534913;28;20608;-77
2021/04/02 11:58:44;;;;;;;7.40;6.67;;;14.50;53.80;;;;;;10533331;28;20221;-78
2021/04/02 12:03:46;;;;;;;7.97;7.27;;;14.40;54.30;;;;;;10534615;28;20365;-78
2021/04/02 12:08:49;;;;;;;6.73;6.10;;;14.30;54.70;;;;;;10534379;28;20180;-77
2021/04/02 12:13:50;;;;;;;7.80;6.80;;;14.30;54.80;;;;;;10539175;28;20654;-77
2021/04/02 12:18:52;;;;;;;7.60;6.90;;;14.30;54.70;;;;;;10543167;28;20202;-77
2021/04/02 12:23:55;;;;;;;6.13;5.70;;;14.30;54.20;;;;;;10542831;28;20687;-78
2021/04/02 12:28:56;;;;;;;7.37;6.67;;;14.30;54.00;;;;;;10542613;28;20196;-77
2021/04/02 12:33:58;;;;;;;6.67;6.07;;;14.30;53.60;;;;;;10542531;28;20217;-77
2021/04/02 12:39:00;;;;;;;7.30;6.63;;;14.30;53.00;;;;;;10540724;28;20213;-76
2021/04/02 12:44:02;;;;;;;5.77;5.23;;;14.30;53.60;;;;;;10540553;28;20220;-78
2021/04/02 12:49:04;;;;;;;6.60;6.03;;;14.30;53.50;;;;;;10541324;28;20261;-77
2021/04/02 12:54:07;;;;;;;6.47;5.97;;;14.30;53.70;;;;;;10541683;28;20261;-77
2021/04/02 12:59:08;;;;;;;6.20;5.80;;;14.20;53.20;;;;;;10541343;28;20243;-78
2021/04/02 13:04:10;;;;;;;6.50;6.00;;;14.20;53.00;;;;;;10545557;28;20211;-77
2021/04/02 13:09:14;;;;;;;6.10;5.60;;;14.30;52.50;;;;;;10544761;28;20235;-78
2021/04/02 13:14:16;;;;;;;5.70;5.30;;;14.20;52.30;;;;;;10550097;28;20188;-77
2021/04/02 13:19:18;;;;;;;6.07;5.53;;;14.20;52.80;;;;;;10545563;28;20388;-78
2021/04/02 13:24:20;;;;;;;5.60;5.20;;;14.10;52.30;;;;;;10538699;28;20212;-79
2021/04/02 13:29:22;;;;;;;5.20;4.80;;;14.20;52.10;;;;;;10540513;28;20210;-77
2021/04/02 13:34:24;;;;;;;6.03;5.53;;;14.20;50.90;;;;;;10539944;28;20271;-77
2021/04/02 13:39:27;;;;;;;5.63;5.23;;;14.20;52.10;;;;;;10539460;28;20250;-78
2021/04/02 13:44:28;;;;;;;4.83;4.43;;;14.20;51.80;;;;;;10537944;28;20236;-78
2021/04/02 13:49:31;;;;;;;5.80;5.33;;;14.30;52.10;;;;;;10537868;28;20212;-78
2021/04/02 13:54:34;;;;;;;5.20;4.90;;;14.30;51.40;;;;;;10539716;28;20555;-78
2021/04/02 13:59:35;;;;;;;5.70;5.30;;;14.40;51.10;;;;;;10538889;28;20287;-77
2021/04/02 14:04:37;;;;;;;5.87;5.37;;;14.40;50.80;;;;;;10538721;28;20250;-77
2021/04/02 14:09:40;;;;;;;6.53;4.90;;;14.40;51.60;;;;;;10538325;28;20583;-78
2021/04/02 14:14:41;;;;;;;5.30;4.90;;;14.40;51.20;;;;;;10538011;28;20215;-78
2021/04/02 14:19:43;;;;;;;5.73;5.23;;;14.40;51.70;;;;;;10536215;28;20211;-78
2021/04/02 14:24:46;;;;;;;4.90;4.50;;;14.50;51.00;;;;;;10537211;28;20227;-77
2021/04/02 14:29:47;;;;;;;4.37;4.07;;;14.60;51.00;;;;;;10535827;28;20237;-77
2021/04/02 14:34:49;;;;;;;5.50;5.10;;;14.60;49.80;;;;;;10535424;28;20601;-78
2021/04/02 14:39:51;;;;;;;5.33;4.93;;;14.60;50.60;;;;;;10565819;22;20318;-76
2021/04/02 14:44:53;;;;;;;5.60;4.87;;;14.60;50.60;;;;;;10579446;28;20593;-76
2021/04/02 14:49:55;;;;;;;4.80;4.40;;;14.70;51.50;;;;;;10561333;28;20279;-75
2021/04/02 14:54:57;;;;;;;5.70;5.27;;;14.70;51.20;;;;;;10580319;28;20229;-76
2021/04/02 14:59:59;;;;;;;5.57;5.07;;;15.00;50.70;;;;;;10560940;28;20636;-76
2021/04/02 15:05:01;;;;;;;6.17;5.67;;;15.40;50.80;;;;;;10579361;28;20238;-76
2021/04/02 15:10:05;;;;;;;5.70;5.20;;;15.50;50.90;;;;;;10579190;28;20219;-76
2021/04/02 15:15:09;;;;;;;6.20;5.70;;;15.40;51.00;;;;;;10577551;28;20271;-76
2021/04/02 15:20:12;;;;;;;5.17;4.67;;;15.30;51.30;;;;;;10578964;28;20239;-76
2021/04/02 15:25:19;;;;;;;6.33;5.83;;;15.10;52.40;;;;;;10578185;28;20226;-76
2021/04/02 15:30:21;;;;;;;6.33;5.70;;;15.00;52.90;;;;;;10578464;28;20211;-76
2021/04/02 15:35:22;;;;;;;6.07;5.57;;;15.00;52.70;;;;;;10578160;28;20239;-76
2021/04/02 15:40:27;;;;;;;4.60;4.30;;;15.00;53.00;;;;;;10578160;28;20289;-76
2021/04/02 15:45:29;;;;;;;6.30;5.70;;;14.90;53.40;;;;;;10576638;28;20219;-76
2021/04/02 15:50:31;;;;;;;6.60;5.30;;;14.90;53.20;;;;;;10577147;28;20237;-76
2021/04/02 15:55:33;;;;;;;5.90;5.13;;;14.90;53.20;;;;;;10557060;28;20226;-76
2021/04/02 16:00:36;;;;;;;6.10;5.60;;;14.90;53.20;;;;;;10578687;28;20255;-76
2021/04/02 16:05:38;;;;;;;5.90;5.30;;;15.00;53.10;;;;;;10581456;28;20207;-76
2021/04/02 16:10:43;;;;;;;5.73;5.23;;;15.00;53.00;;;;;;10573962;28;20350;-76
2021/04/02 16:15:44;;;;;;;5.70;5.20;;;15.00;52.50;;;;;;10563559;28;20191;-76
2021/04/02 16:20:46;;;;;;;7.90;6.23;;;15.00;52.80;;;;;;10585895;28;20206;-76
2021/04/02 16:25:49;;;;;;;7.63;6.93;;;15.00;53.50;;;;;;10550658;28;20226;-76
2021/04/02 16:30:51;;;;;;;9.10;7.80;;;15.00;54.10;;;;;;10577451;28;20223;-76
2021/04/02 16:35:52;;;;;;;7.83;7.13;;;15.00;54.10;;;;;;10541014;28;20218;-76
2021/04/02 16:40:55;;;;;;;7.90;6.67;;;15.00;54.10;;;;;;10562337;28;20346;-76
2021/04/02 16:45:57;;;;;;;6.43;5.83;;;14.90;53.90;;;;;;10537237;28;20264;-75
2021/04/02 16:50:58;;;;;;;6.47;5.87;;;14.80;54.50;;;;;;10551605;28;20701;-76
2021/04/02 16:56:01;;;;;;;6.43;5.83;;;14.70;54.60;;;;;;10543735;28;20196;-76
2021/04/02 17:01:04;;;;;;;7.20;6.60;;;14.60;54.80;;;;;;10565735;27;20219;-75
2021/04/02 17:06:06;;;;;;;6.17;5.17;;;14.50;54.90;;;;;;10570713;28;20214;-76
2021/04/02 17:11:09;;;;;;;6.73;6.13;;;14.40;55.20;;;;;;10559702;28;20233;-76
2021/04/02 17:16:13;;;;;;;5.87;5.40;;;14.30;55.40;;;;;;10571406;28;20203;-76
2021/04/02 17:21:14;;;;;;;6.13;5.63;;;14.20;55.30;;;;;;10551778;28;20226;-76
2021/04/02 17:26:17;;;;;;;6.70;6.10;;;14.10;55.10;;;;;;10558426;28;20191;-76
2021/04/02 17:31:19;;;;;;;5.70;5.20;;;14.00;56.10;;;;;;10575128;27;20219;-76
2021/04/02 17:36:22;;;;;;;5.90;5.40;;;14.00;56.00;;;;;;10578667;27;20286;-77
2021/04/02 17:41:26;;;;;;;5.80;5.30;;;13.90;55.30;;;;;;10590508;27;20234;-76
2021/04/02 17:46:28;;;;;;;6.20;5.57;;;13.80;55.90;;;;;;10626289;27;20207;-76
2021/04/02 17:51:29;;;;;;;5.70;5.20;;;13.70;55.20;;;;;;10626563;27;20210;-76
2021/04/02 17:56:32;;;;;;;5.90;5.40;;;13.60;54.80;;;;;;10607291;27;20270;-77
2021/04/02 18:01:34;;;;;;;4.80;4.50;;;13.60;54.80;;;;;;10605726;27;20652;-76
2021/04/02 18:06:36;;;;;;;5.57;4.70;;;13.50;54.90;;;;;;10624443;27;20205;-76
2021/04/02 18:11:38;;;;;;;5.30;4.90;;;13.40;53.60;;;;;;10605482;27;20200;-76
2021/04/02 18:16:40;;;;;;;4.33;4.00;;;13.30;51.90;;;;;;10589010;27;20202;-75
2021/04/02 18:21:42;;;;;;;4.07;3.77;;;13.10;51.10;;;;;;10624446;27;20210;-76
2021/04/02 18:26:44;;;;;;;4.33;3.93;;;13.10;50.50;;;;;;10624938;27;20225;-76
2021/04/02 18:31:46;;;;;;;4.83;4.43;;;13.00;50.20;;;;;;10625099;27;20674;-76
2021/04/02 18:36:48;;;;;;;4.90;4.40;;;12.90;50.80;;;;;;10623315;27;20203;-76
2021/04/02 18:41:51;;;;;;;4.60;4.20;;;12.90;50.80;;;;;;10604730;27;20319;-75
2021/04/02 18:46:53;;;;;;;4.00;3.70;;;12.80;51.40;;;;;;10583797;27;20206;-76
2021/04/02 18:51:55;;;;;;;4.67;4.27;;;12.80;50.30;;;;;;10589729;27;20215;-76
2021/04/02 18:56:57;;;;;;;4.43;4.03;;;12.70;51.20;;;;;;10567825;27;20681;-77
2021/04/02 19:02:01;;;;;;;3.73;3.43;;;12.70;50.30;;;;;;10586175;27;20309;-76
2021/04/02 19:07:03;;;;;;;4.50;3.57;;;12.70;50.80;;;;;;10602046;27;20231;-76
2021/04/02 19:12:06;;;;;;;4.17;3.80;;;12.60;50.20;;;;;;10579121;28;20753;-76
2021/04/02 19:17:08;;;;;;;4.10;3.80;;;12.60;50.50;;;;;;10590075;27;20465;-76
2021/04/02 19:22:10;;;;;;;4.30;3.37;;;12.60;50.60;;;;;;10603349;27;20249;-76
2021/04/02 19:27:12;;;;;;;4.27;3.97;;;12.50;51.20;;;;;;10577009;27;20198;-76
2021/04/02 19:32:14;;;;;;;4.90;4.50;;;12.50;50.30;;;;;;10609981;27;20210;-76
2021/04/02 19:37:16;;;;;;;4.70;4.30;;;12.40;50.80;;;;;;10620552;27;20277;-76
2021/04/02 19:42:19;;;;;;;4.70;4.20;;;12.40;50.60;;;;;;10611913;27;20223;-75
2021/04/02 19:47:20;;;;;;;5.17;4.77;;;12.40;51.40;;;;;;10577976;28;20480;-76
2021/04/02 19:52:22;;;;;;;4.67;4.27;;;12.30;51.70;;;;;;10577927;28;20199;-75
2021/04/02 19:57:25;;;;;;;5.13;4.63;;;12.30;52.00;;;;;;10591529;27;20203;-76
2021/04/02 20:02:26;;;;;;;4.70;4.30;;;12.30;51.70;;;;;;10601041;27;20283;-75
2021/04/02 20:07:28;;;;;;;4.57;4.17;;;12.20;51.90;;;;;;10592981;28;20258;-76
2021/04/02 20:12:31;;;;;;;5.17;4.77;;;12.20;52.80;;;;;;10584834;28;20255;-76
2021/04/02 20:17:32;;;;;;;5.60;5.10;;;12.10;52.70;;;;;;10601039;28;20221;-76
2021/04/02 20:22:34;;;;;;;6.90;6.20;;;12.10;53.20;;;;;;10601958;28;20238;-76
2021/04/02 20:27:38;;;;;;;8.53;7.40;;;12.10;52.30;;;;;;10601698;28;20190;-76
2021/04/02 20:32:40;;;;;;;7.10;6.50;;;12.00;52.80;;;;;;10622212;27;20559;-76
2021/04/02 20:37:42;;;;;;;6.83;6.23;;;11.80;53.60;;;;;;10609950;27;20669;-76
2021/04/02 20:42:44;;;;;;;6.50;5.90;;;11.60;54.00;;;;;;10602540;22;20227;-82
2021/04/02 20:47:46;;;;;;;7.73;6.93;;;11.40;55.00;;;;;;10515675;28;20199;-81
2021/04/02 20:52:48;;;;;;;6.83;6.23;;;11.40;55.40;;;;;;10533055;28;20269;-82
2021/04/02 20:57:53;;;;;;;7.90;6.50;;;11.40;56.30;;;;;;10532609;28;20226;-81
2021/04/02 21:02:56;;;;;;;10.73;7.57;;;11.40;56.40;;;;;;10550934;28;20235;-82
2021/04/02 21:07:59;;;;;;;8.27;7.47;;;11.40;56.80;;;;;;10548723;28;20200;-82
2021/04/02 21:13:02;;;;;;;9.63;7.80;;;11.30;57.20;;;;;;10538968;28;20207;-81
2021/04/02 21:18:04;;;;;;;9.43;7.90;;;11.30;57.60;;;;;;10574068;28;20203;-82
2021/04/02 21:23:07;;;;;;;8.40;7.60;;;11.20;57.90;;;;;;10551140;28;20264;-82
2021/04/02 21:28:11;;;;;;;13.40;8.33;;;11.20;58.10;;;;;;10533307;28;20200;-82
2021/04/02 21:33:12;;;;;;;9.67;7.77;;;11.20;58.70;;;;;;10531943;28;20228;-82
2021/04/02 21:38:14;;;;;;;14.97;10.00;;;11.10;58.80;;;;;;10523594;28;20192;-82
2021/04/02 21:43:17;;;;;;;11.13;9.30;;;11.10;58.60;;;;;;10531568;28;20220;-82
2021/04/02 21:48:18;;;;;;;12.53;8.63;;;11.00;59.90;;;;;;10530080;28;20230;-82
2021/04/02 21:53:20;;;;;;;11.07;8.27;;;10.90;59.10;;;;;;10530491;28;20706;-82
2021/04/02 21:58:24;;;;;;;9.33;8.33;;;10.90;59.60;;;;;;10512525;28;20694;-81
2021/04/02 22:03:26;;;;;;;10.53;8.53;;;10.80;59.40;;;;;;10550653;28;20219;-79
2021/04/02 22:08:28;;;;;;;9.43;8.43;;;10.80;59.40;;;;;;10513889;28;20677;-83
2021/04/02 22:13:30;;;;;;;11.23;9.13;;;10.90;59.60;;;;;;10528227;28;20226;-82
2021/04/02 22:18:33;;;;;;;10.50;7.83;;;10.90;59.10;;;;;;10508325;28;20196;-83
2021/04/02 22:23:37;;;;;;;8.23;7.43;;;11.00;59.60;;;;;;10526027;28;20216;-81
2021/04/02 22:28:41;;;;;;;10.50;8.50;;;11.00;58.90;;;;;;10544908;28;20208;-82
2021/04/02 22:33:45;;;;;;;9.10;7.53;;;11.00;58.90;;;;;;10528409;28;20340;-82
2021/04/02 22:38:47;;;;;;;8.47;6.97;;;11.00;59.00;;;;;;10528606;28;20224;-80
2021/04/02 22:43:50;;;;;;;8.30;6.17;;;11.00;59.10;;;;;;10522379;28;20231;-81
2021/04/02 22:48:53;;;;;;;6.17;5.20;;;11.00;58.80;;;;;;10523437;28;20212;-82
2021/04/02 22:53:54;;;;;;;5.30;4.80;;;10.90;58.00;;;;;;10509605;28;20321;-82
2021/04/02 22:58:57;;;;;;;6.20;5.13;;;10.90;57.70;;;;;;10546301;28;20230;-82
2021/04/02 23:04:02;;;;;;;9.30;5.37;;;10.80;57.40;;;;;;10524613;28;20572;-81
2021/04/02 23:09:04;;;;;;;7.60;5.03;;;10.80;57.60;;;;;;10543112;28;20196;-81
2021/04/02 23:14:07;;;;;;;6.03;5.43;;;10.70;57.10;;;;;;10524533;28;20200;-81
2021/04/02 23:19:09;;;;;;;5.50;5.00;;;10.70;57.30;;;;;;10506316;28;20593;-81
2021/04/02 23:24:12;;;;;;;6.17;5.10;;;10.60;57.60;;;;;;10543094;28;20226;-82
2021/04/02 23:29:14;;;;;;;7.80;5.20;;;10.60;57.40;;;;;;10547068;28;20198;-83
2021/04/02 23:34:16;;;;;;;7.53;5.93;;;10.50;57.40;;;;;;10509045;28;20579;-82
2021/04/02 23:39:17;;;;;;;5.93;5.43;;;10.50;57.30;;;;;;10534697;28;20222;-80
2021/04/02 23:44:20;;;;;;;7.53;5.90;;;10.50;57.40;;;;;;10521039;28;20702;-82
2021/04/02 23:49:21;;;;;;;6.97;5.17;;;10.40;57.30;;;;;;10520965;28;20256;-82
2021/04/02 23:54:25;;;;;;;6.00;5.30;;;10.40;57.30;;;;;;10521742;28;20228;-82
2021/04/02 23:59:28;;;;;;;5.50;4.77;;;10.30;57.20;;;;;;10537955;28;20652;-79
